createdAt,value
2018-02-24T00:01:14.429Z,21.10
2018-02-24T00:02:14.315Z,20.20
2018-02-24T00:04:07.073Z,21.30
2018-02-24T00:05:06.960Z,20.70
2018-02-24T00:06:59.927Z,21.70
2018-02-24T00:07:59.618Z,21.30
2018-02-24T00:09:52.377Z,21.40
2018-02-24T00:10:52.257Z,21.10
2018-02-24T00:12:45.037Z,21.40
2018-02-24T00:13:44.909Z,21.30
2018-02-24T00:15:37.662Z,21.20
2018-02-24T00:16:37.590Z,20.80
2018-02-24T00:18:30.344Z,21.40
2018-02-24T00:19:30.198Z,21.00
2018-02-24T00:21:22.964Z,21.30
2018-02-24T00:22:22.853Z,20.90
2018-02-24T00:24:15.632Z,21.90
2018-02-24T00:25:15.510Z,22.20
2018-02-24T00:27:08.257Z,21.80
2018-02-24T00:28:08.143Z,21.30
2018-02-24T00:30:01.420Z,21.40
2018-02-24T00:31:01.299Z,21.70
2018-02-24T00:32:54.055Z,21.90
2018-02-24T00:33:53.941Z,21.90
2018-02-24T00:35:46.720Z,21.60
2018-02-24T00:36:46.594Z,21.50
2018-02-24T00:38:39.347Z,22.30
2018-02-24T00:39:39.240Z,22.60
2018-02-24T00:41:32.001Z,22.00
2018-02-24T00:42:31.884Z,21.50
2018-02-24T00:44:24.634Z,21.60
2018-02-24T00:45:24.540Z,22.10
2018-02-24T00:47:17.311Z,21.70
2018-02-24T00:48:17.178Z,21.50
2018-02-24T00:50:09.938Z,21.60
2018-02-24T00:51:09.830Z,22.80
2018-02-24T00:53:03.706Z,22.10
2018-02-24T00:54:03.519Z,22.40
2018-02-24T00:55:56.254Z,21.50
2018-02-24T00:56:56.143Z,21.20
2018-02-24T00:58:48.935Z,22.20
2018-02-24T00:59:48.792Z,21.70
2018-02-24T01:01:41.554Z,21.40
2018-02-24T01:02:41.444Z,21.20
2018-02-24T01:04:34.311Z,21.10
2018-02-24T01:05:34.202Z,21.60
2018-02-24T01:07:26.969Z,21.50
2018-02-24T01:08:26.846Z,22.20
2018-02-24T01:10:19.623Z,22.10
2018-02-24T01:11:19.541Z,22.60
2018-02-24T01:13:12.306Z,22.00
2018-02-24T01:14:12.128Z,22.40
2018-02-24T01:16:04.952Z,22.10
2018-02-24T01:17:04.782Z,21.80
2018-02-24T01:18:57.562Z,21.60
2018-02-24T01:19:57.428Z,22.10
2018-02-24T01:21:50.276Z,22.80
2018-02-24T01:22:50.078Z,22.00
2018-02-24T01:24:42.828Z,21.80
2018-02-24T01:25:42.723Z,22.70
2018-02-24T01:27:35.512Z,22.20
2018-02-24T01:28:35.364Z,22.40
2018-02-24T01:30:28.122Z,22.90
2018-02-24T01:31:28.010Z,21.70
2018-02-24T01:33:20.779Z,21.60
2018-02-24T01:34:20.677Z,23.10
2018-02-24T01:36:13.420Z,22.00
2018-02-24T01:37:13.309Z,21.60
2018-02-24T01:39:06.601Z,24.40
2018-02-24T01:40:06.465Z,23.30
2018-02-24T01:41:59.261Z,23.80
2018-02-24T01:42:59.125Z,22.60
2018-02-24T01:44:51.902Z,21.20
2018-02-24T01:45:51.761Z,22.10
2018-02-24T01:47:44.530Z,21.10
2018-02-24T01:48:44.422Z,21.70
2018-02-24T01:50:37.212Z,21.60
2018-02-24T01:51:37.075Z,21.40
2018-02-24T01:53:29.809Z,21.20
2018-02-24T01:54:29.712Z,21.30
2018-02-24T01:56:22.468Z,21.30
2018-02-24T01:57:22.362Z,21.30
2018-02-24T01:59:15.111Z,20.90
2018-02-24T02:00:15.006Z,21.40
2018-02-24T02:02:07.783Z,20.00
2018-02-24T02:03:07.654Z,20.40
2018-02-24T02:05:00.403Z,20.50
2018-02-24T02:06:00.305Z,20.50
2018-02-24T02:07:53.055Z,19.50
2018-02-24T02:08:52.970Z,19.20
2018-02-24T02:10:45.701Z,20.50
2018-02-24T02:11:45.593Z,20.50
2018-02-24T02:13:38.349Z,20.80
2018-02-24T02:14:38.244Z,20.40
2018-02-24T02:16:30.999Z,20.40
2018-02-24T02:17:30.906Z,20.80
2018-02-24T02:19:23.675Z,19.40
2018-02-24T02:20:23.563Z,20.30
2018-02-24T02:22:16.314Z,19.80
2018-02-24T02:23:16.178Z,19.30
2018-02-24T02:25:08.938Z,19.30
2018-02-24T02:26:08.855Z,19.60
2018-02-24T02:28:01.607Z,21.10
2018-02-24T02:29:01.471Z,20.00
2018-02-24T02:30:54.262Z,21.10
2018-02-24T02:31:54.129Z,20.10
2018-02-24T02:33:46.952Z,18.90
2018-02-24T02:34:46.781Z,20.50
2018-02-24T02:36:39.638Z,19.60
2018-02-24T02:37:39.517Z,19.20
2018-02-24T02:39:32.298Z,20.00
2018-02-24T02:40:32.174Z,19.50
2018-02-24T02:42:24.934Z,20.00
2018-02-24T02:43:24.805Z,20.40
2018-02-24T02:45:17.709Z,18.80
2018-02-24T02:46:17.559Z,19.40
2018-02-24T02:48:10.342Z,19.20
2018-02-24T02:49:10.202Z,19.30
2018-02-24T02:51:02.981Z,18.60
2018-02-24T02:52:02.884Z,19.00
2018-02-24T02:53:55.618Z,19.50
2018-02-24T02:54:55.505Z,18.70
2018-02-24T02:56:48.353Z,19.50
2018-02-24T02:57:48.252Z,19.40
2018-02-24T02:59:41.133Z,19.80
2018-02-24T03:00:41.002Z,17.90
2018-02-24T03:02:33.748Z,19.80
2018-02-24T03:03:33.647Z,20.50
2018-02-24T03:05:26.922Z,19.80
2018-02-24T03:06:26.818Z,19.10
2018-02-24T03:08:19.661Z,19.50
2018-02-24T03:09:19.545Z,19.30
2018-02-24T03:11:12.415Z,19.90
2018-02-24T03:12:12.306Z,18.60
2018-02-24T03:14:05.165Z,19.50
2018-02-24T03:15:05.054Z,19.80
2018-02-24T03:16:57.993Z,18.50
2018-02-24T03:17:57.884Z,19.30
2018-02-24T03:19:50.656Z,19.80
2018-02-24T03:20:50.546Z,19.20
2018-02-24T03:22:43.439Z,18.90
2018-02-24T03:23:43.320Z,18.80
2018-02-24T03:25:36.171Z,18.80
2018-02-24T03:26:36.047Z,18.70
2018-02-24T03:28:29.017Z,19.50
2018-02-24T03:29:28.802Z,19.20
2018-02-24T03:31:21.691Z,18.80
2018-02-24T03:32:21.547Z,18.70
2018-02-24T03:34:14.438Z,18.60
2018-02-24T03:35:14.293Z,19.60
2018-02-24T03:37:07.176Z,19.10
2018-02-24T03:38:07.052Z,18.00
2018-02-24T03:39:59.825Z,18.90
2018-02-24T03:40:59.703Z,18.20
2018-02-24T03:42:52.552Z,18.30
2018-02-24T03:43:52.458Z,19.10
2018-02-24T03:45:45.410Z,17.90
2018-02-24T03:46:45.294Z,17.20
2018-02-24T03:48:38.150Z,17.50
2018-02-24T03:49:38.048Z,18.10
2018-02-24T03:51:30.834Z,17.60
2018-02-24T03:52:30.703Z,17.90
2018-02-24T03:54:23.588Z,18.10
2018-02-24T03:55:23.454Z,17.60
2018-02-24T03:57:16.233Z,17.50
2018-02-24T03:58:16.108Z,17.70
2018-02-24T04:00:08.889Z,17.70
2018-02-24T04:01:08.743Z,16.70
2018-02-24T04:03:01.513Z,17.40
2018-02-24T04:04:01.404Z,17.40
2018-02-24T04:05:54.137Z,17.90
2018-02-24T04:06:54.046Z,17.00
2018-02-24T04:08:46.857Z,16.60
2018-02-24T04:09:46.685Z,17.80
2018-02-24T04:11:39.448Z,17.20
2018-02-24T04:12:39.377Z,16.80
2018-02-24T04:14:32.105Z,16.20
2018-02-24T04:15:31.971Z,16.60
2018-02-24T04:17:24.737Z,17.40
2018-02-24T04:18:24.633Z,17.10
2018-02-24T04:20:17.401Z,16.70
2018-02-24T04:21:17.320Z,16.60
2018-02-24T04:23:10.083Z,16.60
2018-02-24T04:24:10.150Z,16.70
2018-02-24T04:26:02.827Z,16.50
2018-02-24T04:27:02.678Z,16.10
2018-02-24T04:28:55.438Z,16.50
2018-02-24T04:29:55.308Z,16.60
2018-02-24T04:31:48.343Z,16.30
2018-02-24T04:32:47.959Z,16.90
2018-02-24T04:34:40.730Z,16.20
2018-02-24T04:35:40.597Z,16.50
2018-02-24T04:37:33.366Z,16.90
2018-02-24T04:38:33.266Z,16.00
2018-02-24T04:40:26.008Z,16.20
2018-02-24T04:41:25.896Z,16.50
2018-02-24T04:43:18.679Z,17.10
2018-02-24T04:44:18.550Z,16.50
2018-02-24T04:46:11.320Z,15.80
2018-02-24T04:47:11.191Z,15.80
2018-02-24T04:49:03.957Z,15.30
2018-02-24T04:50:03.841Z,15.40
2018-02-24T04:51:56.593Z,17.10
2018-02-24T04:52:56.486Z,16.80
2018-02-24T04:54:49.778Z,16.40
2018-02-24T04:55:50.226Z,16.40
2018-02-24T04:57:42.407Z,15.90
2018-02-24T04:58:42.296Z,16.80
2018-02-24T05:00:35.132Z,16.00
2018-02-24T05:01:34.940Z,16.50
2018-02-24T05:03:27.705Z,15.90
2018-02-24T05:04:27.597Z,16.00
2018-02-24T05:06:20.369Z,16.20
2018-02-24T05:07:20.251Z,16.60
2018-02-24T05:09:12.989Z,16.00
2018-02-24T05:10:12.887Z,16.60
2018-02-24T05:12:06.168Z,16.70
2018-02-24T05:13:06.066Z,16.50
2018-02-24T05:14:58.806Z,16.90
2018-02-24T05:15:58.706Z,16.90
2018-02-24T05:17:52.073Z,16.60
2018-02-24T05:18:51.857Z,16.40
2018-02-24T05:20:44.609Z,17.50
2018-02-24T05:21:44.496Z,17.30
2018-02-24T05:23:37.339Z,17.40
2018-02-24T05:24:37.144Z,17.20
2018-02-24T05:26:30.410Z,18.00
2018-02-24T05:27:30.301Z,17.00
2018-02-24T05:29:23.067Z,17.40
2018-02-24T05:30:22.948Z,16.70
2018-02-24T05:32:15.748Z,17.20
2018-02-24T05:33:15.615Z,17.70
2018-02-24T05:35:08.350Z,18.00
2018-02-24T05:36:08.239Z,17.90
2018-02-24T05:38:01.620Z,18.10
2018-02-24T05:39:01.414Z,17.80
2018-02-24T05:40:54.161Z,17.40
2018-02-24T05:41:54.045Z,16.40
2018-02-24T05:43:46.889Z,16.00
2018-02-24T05:44:46.695Z,16.10
2018-02-24T05:46:39.445Z,16.70
2018-02-24T05:47:39.345Z,16.90
2018-02-24T05:49:32.111Z,17.80
2018-02-24T05:50:31.990Z,17.50
2018-02-24T05:52:24.749Z,17.90
2018-02-24T05:53:24.633Z,17.70
2018-02-24T05:55:17.427Z,20.00
2018-02-24T05:56:17.300Z,19.20
2018-02-24T05:58:10.048Z,18.60
2018-02-24T05:59:09.928Z,17.60
2018-02-24T06:01:02.698Z,16.90
2018-02-24T06:02:02.576Z,16.40
2018-02-24T06:03:55.377Z,15.70
2018-02-24T06:04:55.239Z,15.70
2018-02-24T06:06:48.004Z,16.00
2018-02-24T06:07:47.870Z,15.10
2018-02-24T06:09:40.629Z,15.40
2018-02-24T06:10:40.531Z,15.60
2018-02-24T06:12:33.318Z,15.10
2018-02-24T06:13:33.182Z,15.30
2018-02-24T06:15:25.924Z,15.00
2018-02-24T06:16:25.824Z,14.90
2018-02-24T06:18:18.605Z,15.70
2018-02-24T06:19:18.487Z,15.40
2018-02-24T06:21:11.229Z,15.80
2018-02-24T06:22:11.111Z,16.20
2018-02-24T06:24:04.042Z,15.50
2018-02-24T06:25:03.767Z,15.70
2018-02-24T06:26:56.583Z,16.20
2018-02-24T06:27:56.429Z,15.40
2018-02-24T06:29:49.184Z,16.30
2018-02-24T06:30:49.048Z,16.50
2018-02-24T06:32:41.821Z,15.80
2018-02-24T06:33:41.703Z,15.90
2018-02-24T06:35:34.485Z,15.10
2018-02-24T06:36:34.381Z,15.90
2018-02-24T06:38:27.108Z,15.80
2018-02-24T06:39:27.016Z,15.00
2018-02-24T06:41:19.773Z,15.30
2018-02-24T06:42:19.643Z,15.70
2018-02-24T06:44:12.400Z,15.40
2018-02-24T06:45:12.289Z,16.20
2018-02-24T06:47:05.568Z,16.00
2018-02-24T06:48:05.461Z,15.50
2018-02-24T06:49:58.200Z,16.60
2018-02-24T06:50:58.096Z,15.90
2018-02-24T06:52:50.877Z,15.60
2018-02-24T06:53:50.745Z,14.10
2018-02-24T06:55:43.498Z,14.70
2018-02-24T06:56:43.408Z,14.40
2018-02-24T06:58:36.191Z,14.80
2018-02-24T06:59:36.044Z,15.20
2018-02-24T07:01:28.794Z,15.30
2018-02-24T07:02:28.676Z,15.50
2018-02-24T07:04:21.503Z,14.70
2018-02-24T07:05:21.337Z,14.70
2018-02-24T07:07:14.078Z,14.70
2018-02-24T07:08:13.982Z,14.50
2018-02-24T07:10:06.755Z,14.50
2018-02-24T07:11:06.628Z,13.80
2018-02-24T07:12:59.432Z,14.00
2018-02-24T07:13:59.280Z,14.20
2018-02-24T07:15:52.037Z,14.00
2018-02-24T07:16:51.918Z,14.60
2018-02-24T07:18:44.684Z,14.30
2018-02-24T07:19:44.575Z,14.00
2018-02-24T07:21:37.381Z,14.50
2018-02-24T07:22:37.216Z,14.30
2018-02-24T07:24:29.967Z,13.90
2018-02-24T07:25:29.854Z,14.00
2018-02-24T07:27:22.639Z,14.20
2018-02-24T07:28:22.508Z,14.20
2018-02-24T07:30:15.262Z,13.60
2018-02-24T07:31:15.161Z,14.20
2018-02-24T07:33:07.942Z,14.30
2018-02-24T07:34:07.807Z,14.60
2018-02-24T07:36:00.571Z,14.80
2018-02-24T07:37:00.456Z,13.30
2018-02-24T07:38:53.214Z,13.70
2018-02-24T07:39:53.095Z,14.10
2018-02-24T07:41:45.857Z,13.60
2018-02-24T07:42:45.768Z,13.90
2018-02-24T07:44:38.549Z,13.90
2018-02-24T07:45:38.393Z,14.20
2018-02-24T07:47:31.148Z,14.50
2018-02-24T07:48:31.045Z,14.10
2018-02-24T07:50:23.826Z,14.60
2018-02-24T07:51:23.698Z,16.70
2018-02-24T07:53:16.435Z,24.90
2018-02-24T07:54:16.332Z,16.70
2018-02-24T07:56:09.099Z,14.10
2018-02-24T07:57:08.980Z,14.40
2018-02-24T07:59:01.735Z,15.10
2018-02-24T08:00:01.651Z,15.60
2018-02-24T08:01:54.411Z,14.70
2018-02-24T08:02:54.286Z,14.40
2018-02-24T08:04:47.042Z,14.80
2018-02-24T08:05:46.918Z,13.50
2018-02-24T08:07:39.702Z,14.10
2018-02-24T08:08:39.572Z,14.30
2018-02-24T08:10:32.327Z,13.20
2018-02-24T08:11:32.224Z,14.10
2018-02-24T08:13:25.031Z,13.70
2018-02-24T08:14:24.911Z,13.70
2018-02-24T08:16:17.618Z,13.70
2018-02-24T08:17:17.554Z,13.60
2018-02-24T08:19:10.287Z,14.20
2018-02-24T08:20:10.156Z,14.20
2018-02-24T08:22:02.934Z,13.50
2018-02-24T08:23:02.837Z,13.30
2018-02-24T08:24:55.659Z,13.70
2018-02-24T08:25:55.447Z,13.50
2018-02-24T08:27:48.214Z,13.00
2018-02-24T08:28:48.125Z,13.60
2018-02-24T08:30:40.862Z,13.20
2018-02-24T08:31:40.748Z,13.20
2018-02-24T08:33:33.497Z,14.00
2018-02-24T08:34:33.389Z,13.90
2018-02-24T08:36:26.168Z,13.70
2018-02-24T08:37:26.053Z,13.70
2018-02-24T08:39:18.827Z,13.30
2018-02-24T08:40:18.691Z,14.50
2018-02-24T08:42:11.480Z,13.20
2018-02-24T08:43:11.339Z,13.60
2018-02-24T08:45:04.121Z,13.10
2018-02-24T08:46:03.984Z,13.60
2018-02-24T08:47:56.776Z,13.00
2018-02-24T08:48:56.625Z,13.00
2018-02-24T08:50:49.400Z,13.50
2018-02-24T08:51:49.291Z,12.70
2018-02-24T08:53:42.066Z,13.20
2018-02-24T08:54:41.926Z,13.40
2018-02-24T08:56:34.710Z,13.20
2018-02-24T08:57:34.590Z,13.60
2018-02-24T08:59:27.349Z,13.90
2018-02-24T09:00:27.235Z,13.90
2018-02-24T09:02:19.988Z,13.20
2018-02-24T09:03:19.909Z,13.10
2018-02-24T09:05:12.631Z,13.70
2018-02-24T09:06:12.512Z,13.80
2018-02-24T09:08:05.271Z,14.60
2018-02-24T09:09:05.162Z,13.30
2018-02-24T09:10:57.924Z,13.20
2018-02-24T09:11:57.808Z,13.50
2018-02-24T09:13:51.110Z,14.10
2018-02-24T09:14:50.981Z,13.90
2018-02-24T09:16:43.834Z,14.20
2018-02-24T09:17:43.672Z,13.90
2018-02-24T09:19:37.627Z,14.40
2018-02-24T09:20:37.337Z,14.20
2018-02-24T09:22:30.073Z,14.00
2018-02-24T09:23:30.436Z,14.90
2018-02-24T09:25:26.912Z,14.00
2018-02-24T09:26:23.841Z,14.60
2018-02-24T09:28:16.397Z,13.90
2018-02-24T09:29:16.314Z,14.70
2018-02-24T09:31:09.265Z,15.40
2018-02-24T09:32:09.098Z,15.10
2018-02-24T09:34:01.988Z,15.50
2018-02-24T09:35:01.877Z,14.90
2018-02-24T09:36:54.628Z,15.20
2018-02-24T09:37:54.511Z,14.30
2018-02-24T09:39:47.280Z,15.00
2018-02-24T09:40:47.158Z,14.50
2018-02-24T09:42:39.901Z,14.80
2018-02-24T09:43:39.801Z,14.10
2018-02-24T09:45:32.572Z,14.50
2018-02-24T09:46:32.449Z,15.60
2018-02-24T09:48:25.199Z,15.90
2018-02-24T09:49:25.126Z,15.10
2018-02-24T09:51:17.847Z,15.70
2018-02-24T09:52:17.740Z,14.00
2018-02-24T09:54:10.480Z,14.80
2018-02-24T09:55:10.380Z,15.60
2018-02-24T09:57:03.168Z,14.60
2018-02-24T09:58:03.032Z,13.60
2018-02-24T09:59:55.880Z,14.50
2018-02-24T10:00:55.675Z,13.90
2018-02-24T10:02:48.462Z,14.00
2018-02-24T10:03:48.334Z,13.10
2018-02-24T10:05:41.086Z,13.00
2018-02-24T10:06:40.986Z,13.70
2018-02-24T10:08:33.764Z,12.70
2018-02-24T10:09:33.616Z,13.40
2018-02-24T10:11:26.527Z,13.40
2018-02-24T10:12:26.365Z,13.10
2018-02-24T10:14:19.360Z,13.50
2018-02-24T10:15:19.234Z,12.80
2018-02-24T10:17:12.801Z,12.50
2018-02-24T10:18:12.701Z,12.30
2018-02-24T10:20:05.559Z,12.40
2018-02-24T10:21:05.441Z,12.60
2018-02-24T10:22:58.822Z,12.10
2018-02-24T10:23:58.694Z,11.10
2018-02-24T10:25:51.606Z,11.30
2018-02-24T10:26:51.449Z,12.00
2018-02-24T10:28:44.753Z,19.50
2018-02-24T10:29:44.597Z,16.00
2018-02-24T10:31:37.470Z,16.30
2018-02-24T10:32:37.360Z,14.60
2018-02-24T10:34:30.212Z,12.10
2018-02-24T10:35:30.111Z,14.30
2018-02-24T10:37:23.084Z,13.70
2018-02-24T10:38:22.952Z,12.30
2018-02-24T10:40:15.822Z,14.30
2018-02-24T10:41:15.700Z,13.20
2018-02-24T10:43:08.601Z,13.40
2018-02-24T10:44:08.446Z,11.90
2018-02-24T10:46:01.792Z,14.70
2018-02-24T10:47:01.237Z,13.40
2018-02-24T10:48:54.071Z,12.00
2018-02-24T10:49:53.948Z,13.20
2018-02-24T10:51:46.831Z,12.20
2018-02-24T10:52:46.703Z,12.10
2018-02-24T10:54:40.507Z,11.60
2018-02-24T10:55:40.374Z,11.20
2018-02-24T10:57:33.253Z,11.20
2018-02-24T10:58:33.132Z,11.50
2018-02-24T11:00:26.017Z,11.10
2018-02-24T11:01:25.894Z,11.20
2018-02-24T11:03:18.740Z,10.60
2018-02-24T11:04:18.626Z,10.70
2018-02-24T11:06:11.486Z,10.20
2018-02-24T11:07:11.377Z,10.60
2018-02-24T11:09:04.226Z,8.10
2018-02-24T11:10:04.128Z,6.70
2018-02-24T11:11:57.017Z,6.40
2018-02-24T11:12:56.866Z,5.80
2018-02-24T11:14:49.720Z,5.10
2018-02-24T11:15:49.631Z,5.40
2018-02-24T11:17:42.490Z,4.70
2018-02-24T11:18:42.379Z,4.60
2018-02-24T11:20:35.226Z,4.90
2018-02-24T11:21:35.122Z,4.40
2018-02-24T11:23:27.996Z,4.20
2018-02-24T11:24:27.887Z,5.20
2018-02-24T11:26:20.982Z,4.80
2018-02-24T11:27:20.835Z,4.70
2018-02-24T11:29:13.757Z,4.10
2018-02-24T11:30:13.580Z,3.80
2018-02-24T11:32:07.038Z,4.00
2018-02-24T11:33:06.375Z,3.70
2018-02-24T11:35:00.209Z,3.30
2018-02-24T11:36:00.126Z,3.40
2018-02-24T11:37:52.988Z,2.80
2018-02-24T11:38:52.867Z,3.10
2018-02-24T11:40:45.712Z,2.20
2018-02-24T11:41:45.602Z,2.50
2018-02-24T11:43:38.466Z,2.70
2018-02-24T11:44:38.352Z,2.40
2018-02-24T11:46:31.221Z,2.60
2018-02-24T11:47:31.146Z,2.20
2018-02-24T11:49:23.975Z,2.40
2018-02-24T11:50:23.875Z,2.10
2018-02-24T11:52:17.721Z,2.70
2018-02-24T11:53:17.619Z,6.50
2018-02-24T11:55:10.522Z,5.00
2018-02-24T11:56:10.369Z,3.10
2018-02-24T11:58:03.236Z,2.20
2018-02-24T11:59:03.127Z,2.20
2018-02-24T12:00:56.020Z,3.30
2018-02-24T12:01:55.868Z,2.80
2018-02-24T12:03:48.725Z,2.40
2018-02-24T12:04:48.620Z,2.30
2018-02-24T12:06:41.523Z,2.50
2018-02-24T12:07:41.370Z,2.60
2018-02-24T12:09:34.216Z,3.30
2018-02-24T12:10:34.116Z,3.60
2018-02-24T12:12:26.998Z,5.80
2018-02-24T12:13:26.882Z,3.60
2018-02-24T12:15:19.720Z,2.30
2018-02-24T12:16:19.623Z,2.40
2018-02-24T12:18:12.474Z,2.50
2018-02-24T12:19:12.363Z,2.10
2018-02-24T12:21:05.228Z,2.10
2018-02-24T12:22:05.127Z,2.10
2018-02-24T12:23:58.005Z,2.70
2018-02-24T12:24:57.859Z,3.40
2018-02-24T12:26:50.722Z,2.40
2018-02-24T12:27:50.624Z,2.70
2018-02-24T12:29:43.496Z,4.10
2018-02-24T12:30:43.378Z,3.30
2018-02-24T12:32:36.734Z,5.70
2018-02-24T12:33:36.638Z,3.10
2018-02-24T12:35:29.995Z,2.70
2018-02-24T12:36:29.388Z,2.00
2018-02-24T12:38:22.252Z,2.00
2018-02-24T12:39:22.132Z,2.00
2018-02-24T12:41:14.996Z,1.80
2018-02-24T12:42:14.888Z,1.60
2018-02-24T12:44:07.742Z,2.30
2018-02-24T12:45:07.632Z,1.80
2018-02-24T12:47:00.504Z,1.60
2018-02-24T12:48:00.382Z,2.20
2018-02-24T12:49:53.226Z,2.10
2018-02-24T12:50:53.124Z,2.30
2018-02-24T12:52:45.993Z,2.50
2018-02-24T12:53:45.873Z,1.90
2018-02-24T12:55:38.872Z,1.90
2018-02-24T12:56:38.628Z,2.10
2018-02-24T12:58:31.515Z,1.80
2018-02-24T12:59:31.373Z,1.80
2018-02-24T13:01:24.330Z,2.30
2018-02-24T13:02:24.248Z,2.10
2018-02-24T13:04:17.105Z,3.30
2018-02-24T13:05:16.994Z,2.30
2018-02-24T13:07:09.830Z,2.40
2018-02-24T13:08:09.722Z,2.50
2018-02-24T13:10:02.615Z,2.10
2018-02-24T13:11:02.495Z,2.40
2018-02-24T13:12:55.338Z,2.50
2018-02-24T13:13:55.263Z,2.20
2018-02-24T13:15:48.102Z,2.20
2018-02-24T13:16:47.990Z,2.10
2018-02-24T13:18:40.829Z,2.00
2018-02-24T13:19:40.741Z,1.90
2018-02-24T13:21:33.624Z,2.10
2018-02-24T13:22:33.464Z,2.50
2018-02-24T13:24:26.365Z,2.60
2018-02-24T13:25:26.243Z,2.00
2018-02-24T13:27:19.094Z,2.40
2018-02-24T13:28:18.975Z,2.60
2018-02-24T13:30:13.370Z,2.30
2018-02-24T13:31:13.253Z,2.60
2018-02-24T13:33:06.140Z,2.20
2018-02-24T13:34:06.064Z,2.60
2018-02-24T13:35:58.876Z,2.90
2018-02-24T13:36:58.764Z,3.50
2018-02-24T13:38:51.549Z,2.30
2018-02-24T13:39:51.424Z,2.10
2018-02-24T13:41:44.255Z,1.90
2018-02-24T13:42:44.152Z,2.20
2018-02-24T13:44:37.018Z,1.80
2018-02-24T13:45:36.899Z,1.90
2018-02-24T13:47:29.750Z,1.90
2018-02-24T13:48:29.648Z,1.80
2018-02-24T13:50:22.558Z,1.80
2018-02-24T13:51:22.399Z,1.70
2018-02-24T13:53:15.381Z,1.90
2018-02-24T13:54:15.253Z,4.80
2018-02-24T13:56:08.446Z,2.10
2018-02-24T13:57:08.312Z,1.90
2018-02-24T13:59:01.176Z,1.60
2018-02-24T14:00:01.051Z,1.90
2018-02-24T14:01:53.926Z,2.10
2018-02-24T14:02:53.893Z,2.10
2018-02-24T14:04:46.658Z,2.20
2018-02-24T14:05:46.587Z,2.30
2018-02-24T14:07:41.044Z,1.70
2018-02-24T14:08:40.638Z,2.20
2018-02-24T14:10:33.994Z,1.70
2018-02-24T14:11:33.898Z,1.60
2018-02-24T14:13:26.825Z,3.60
2018-02-24T14:14:26.649Z,1.90
2018-02-24T14:16:19.495Z,1.70
2018-02-24T14:17:19.397Z,1.70
2018-02-24T14:19:12.475Z,1.90
2018-02-24T14:20:12.357Z,1.80
2018-02-24T14:22:05.246Z,1.90
2018-02-24T14:23:05.101Z,1.70
2018-02-24T14:24:57.991Z,1.60
2018-02-24T14:25:57.857Z,1.80
2018-02-24T14:27:50.619Z,1.90
2018-02-24T14:28:50.566Z,1.90
2018-02-24T14:30:43.876Z,2.00
2018-02-24T14:31:43.771Z,1.80
2018-02-24T14:33:36.516Z,1.70
2018-02-24T14:34:36.421Z,2.40
2018-02-24T14:36:29.196Z,2.70
2018-02-24T14:37:29.066Z,2.40
2018-02-24T14:39:21.838Z,3.40
2018-02-24T14:40:21.720Z,2.70
2018-02-24T14:42:14.466Z,1.90
2018-02-24T14:43:14.357Z,1.80
2018-02-24T14:45:07.199Z,1.70
2018-02-24T14:46:07.109Z,1.80
2018-02-24T14:47:59.883Z,2.00
2018-02-24T14:48:59.782Z,2.40
2018-02-24T14:50:53.078Z,2.40
2018-02-24T14:51:52.922Z,2.00
2018-02-24T14:53:45.677Z,1.90
2018-02-24T14:54:45.563Z,1.80
2018-02-24T14:56:38.335Z,1.90
2018-02-24T14:57:38.207Z,1.90
2018-02-24T14:59:30.978Z,2.00
2018-02-24T15:00:30.853Z,1.70
2018-02-24T15:02:24.133Z,1.80
2018-02-24T15:03:24.012Z,1.80
2018-02-24T15:05:16.784Z,2.00
2018-02-24T15:06:16.665Z,2.00
2018-02-24T15:08:09.493Z,2.00
2018-02-24T15:09:09.317Z,1.60
2018-02-24T15:11:02.131Z,1.90
2018-02-24T15:12:01.958Z,1.80
2018-02-24T15:13:54.731Z,2.00
2018-02-24T15:14:54.607Z,2.00
2018-02-24T15:16:47.390Z,1.90
2018-02-24T15:17:47.312Z,2.00
2018-02-24T15:19:40.132Z,2.00
2018-02-24T15:20:40.006Z,2.20
2018-02-24T15:22:32.960Z,1.70
2018-02-24T15:23:32.659Z,2.10
2018-02-24T15:25:25.419Z,1.80
2018-02-24T15:26:25.291Z,2.30
2018-02-24T15:28:18.162Z,2.60
2018-02-24T15:29:18.032Z,2.50
2018-02-24T15:31:10.804Z,2.10
2018-02-24T15:32:10.708Z,2.50
2018-02-24T15:34:03.551Z,2.30
2018-02-24T15:35:03.388Z,2.20
2018-02-24T15:36:56.092Z,2.40
2018-02-24T15:37:55.979Z,2.40
2018-02-24T15:39:48.757Z,1.90
2018-02-24T15:40:48.632Z,1.80
2018-02-24T15:42:41.388Z,1.80
2018-02-24T15:43:41.281Z,2.00
2018-02-24T15:45:34.043Z,1.70
2018-02-24T15:46:33.984Z,2.00
2018-02-24T15:48:26.685Z,3.00
2018-02-24T15:49:26.578Z,2.20
2018-02-24T15:51:19.330Z,2.10
2018-02-24T15:52:19.220Z,2.50
2018-02-24T15:54:11.966Z,1.80
2018-02-24T15:55:11.868Z,7.00
2018-02-24T15:57:04.633Z,5.30
2018-02-24T15:58:04.511Z,3.80
2018-02-24T15:59:57.266Z,2.50
2018-02-24T16:00:57.199Z,3.00
2018-02-24T16:02:49.934Z,3.00
2018-02-24T16:03:49.810Z,2.90
2018-02-24T16:05:42.557Z,3.10
2018-02-24T16:06:42.450Z,2.70
2018-02-24T16:08:35.208Z,2.30
2018-02-24T16:09:35.096Z,2.30
2018-02-24T16:11:27.877Z,2.10
2018-02-24T16:12:27.753Z,2.10
2018-02-24T16:14:20.531Z,2.00
2018-02-24T16:15:20.389Z,2.10
2018-02-24T16:17:13.174Z,2.20
2018-02-24T16:18:13.044Z,2.00
2018-02-24T16:20:06.568Z,2.30
2018-02-24T16:21:06.198Z,2.10
2018-02-24T16:22:59.033Z,2.50
2018-02-24T16:23:58.852Z,2.30
2018-02-24T16:25:51.609Z,2.10
2018-02-24T16:26:51.532Z,2.20
2018-02-24T16:28:44.355Z,2.20
2018-02-24T16:29:44.247Z,2.50
2018-02-24T16:31:37.078Z,2.00
2018-02-24T16:32:36.952Z,2.40
2018-02-24T16:34:29.638Z,2.40
2018-02-24T16:35:29.557Z,2.10
2018-02-24T16:37:22.564Z,3.30
2018-02-24T16:38:22.235Z,3.80
2018-02-24T16:40:14.941Z,3.70
2018-02-24T16:41:14.836Z,4.30
2018-02-24T16:43:07.593Z,10.30
2018-02-24T16:44:07.478Z,5.50
2018-02-24T16:46:00.222Z,7.50
2018-02-24T16:47:00.134Z,4.70
2018-02-24T16:48:52.912Z,3.30
2018-02-24T16:49:52.778Z,5.80
2018-02-24T16:51:45.518Z,17.00
2018-02-24T16:52:45.420Z,25.60
2018-02-24T16:54:38.179Z,32.30
2018-02-24T16:55:38.070Z,24.40
2018-02-24T16:57:30.813Z,14.40
2018-02-24T16:58:30.720Z,94.30
2018-02-24T17:00:23.467Z,34.00
2018-02-24T17:01:23.354Z,70.20
2018-02-24T17:03:16.112Z,21.80
2018-02-24T17:04:16.005Z,21.60
2018-02-24T17:06:08.801Z,56.40
2018-02-24T17:07:08.662Z,70.00
2018-02-24T17:09:01.410Z,26.30
2018-02-24T17:10:01.330Z,21.70
2018-02-24T17:11:54.140Z,5.70
2018-02-24T17:12:53.942Z,11.30
2018-02-24T17:14:46.695Z,16.50
2018-02-24T17:15:46.594Z,12.70
2018-02-24T17:17:39.902Z,6.30
2018-02-24T17:18:39.820Z,3.30
2018-02-24T17:20:32.511Z,5.70
2018-02-24T17:21:32.400Z,7.40
2018-02-24T17:23:25.442Z,3.60
2018-02-24T17:24:25.061Z,3.40
2018-02-24T17:26:17.860Z,2.90
2018-02-24T17:27:17.691Z,3.30
2018-02-24T17:29:10.964Z,3.30
2018-02-24T17:30:10.880Z,2.70
2018-02-24T17:32:03.638Z,3.10
2018-02-24T17:33:03.507Z,3.00
2018-02-24T17:34:56.260Z,3.00
2018-02-24T17:35:56.163Z,3.30
2018-02-24T17:37:48.903Z,3.00
2018-02-24T17:38:48.786Z,3.10
2018-02-24T17:40:41.578Z,3.30
2018-02-24T17:41:41.452Z,3.20
2018-02-24T17:43:34.705Z,2.80
2018-02-24T17:44:34.598Z,3.00
2018-02-24T17:46:27.378Z,3.10
2018-02-24T17:47:27.259Z,3.50
2018-02-24T17:49:20.109Z,3.50
2018-02-24T17:50:19.997Z,3.20
2018-02-24T17:52:12.771Z,3.30
2018-02-24T17:53:12.639Z,2.90
2018-02-24T17:55:05.496Z,2.90
2018-02-24T17:56:05.398Z,2.90
2018-02-24T17:57:58.270Z,3.50
2018-02-24T17:58:58.133Z,2.90
2018-02-24T18:00:51.209Z,3.30
2018-02-24T18:01:51.094Z,3.40
2018-02-24T18:03:43.871Z,3.20
2018-02-24T18:04:43.757Z,3.30
2018-02-24T18:06:36.501Z,2.80
2018-02-24T18:07:36.389Z,2.90
2018-02-24T18:09:29.259Z,3.00
2018-02-24T18:10:29.154Z,3.60
2018-02-24T18:12:21.986Z,4.10
2018-02-24T18:13:21.906Z,4.20
2018-02-24T18:15:14.653Z,3.30
2018-02-24T18:16:14.535Z,3.10
2018-02-24T18:18:07.291Z,3.30
2018-02-24T18:19:07.189Z,3.30
2018-02-24T18:20:59.973Z,3.40
2018-02-24T18:21:59.940Z,3.40
2018-02-24T18:23:53.859Z,3.20
2018-02-24T18:24:52.638Z,3.50
2018-02-24T18:26:45.344Z,3.20
2018-02-24T18:27:45.227Z,2.90
2018-02-24T18:29:38.093Z,3.40
2018-02-24T18:30:37.982Z,3.20
2018-02-24T18:32:30.963Z,3.20
2018-02-24T18:33:30.742Z,3.00
2018-02-24T18:35:23.490Z,3.30
2018-02-24T18:36:23.379Z,3.30
2018-02-24T18:38:16.243Z,3.00
2018-02-24T18:39:16.611Z,3.40
2018-02-24T18:41:09.177Z,3.10
2018-02-24T18:42:09.079Z,2.80
2018-02-24T18:44:01.948Z,3.20
2018-02-24T18:45:01.825Z,3.10
2018-02-24T18:46:54.580Z,3.20